createdAt,value
2022-10-21T00:01:53.966Z,8.60
2022-10-21T00:04:20.394Z,9.23
2022-10-21T00:06:46.937Z,8.70
2022-10-21T00:09:13.461Z,9.40
2022-10-21T00:11:39.780Z,9.20
2022-10-21T00:14:06.180Z,9.07
2022-10-21T00:16:32.518Z,8.97
2022-10-21T00:18:58.890Z,10.23
2022-10-21T00:21:25.300Z,11.17
2022-10-21T00:23:51.676Z,10.20
2022-10-21T00:26:18.336Z,11.00
2022-10-21T00:28:44.630Z,9.93
2022-10-21T00:31:12.302Z,11.43
2022-10-21T00:33:39.131Z,10.13
2022-10-21T00:36:07.590Z,9.00
2022-10-21T00:38:34.529Z,8.53
2022-10-21T00:41:01.823Z,8.67
2022-10-21T00:43:28.862Z,9.07
2022-10-21T00:46:05.481Z,9.20
2022-10-21T00:48:39.931Z,9.40
2022-10-21T00:51:07.683Z,9.10
2022-10-21T00:53:35.079Z,10.60
2022-10-21T00:56:06.019Z,12.60
2022-10-21T00:58:33.578Z,12.30
2022-10-21T01:01:02.730Z,13.60
2022-10-21T01:03:31.403Z,12.87
2022-10-21T01:05:58.515Z,10.83
2022-10-21T01:08:25.012Z,11.40
2022-10-21T01:10:52.576Z,12.30
2022-10-21T01:13:27.822Z,9.60
2022-10-21T01:16:00.199Z,11.10
2022-10-21T01:18:32.894Z,11.57
2022-10-21T01:21:26.365Z,11.80
2022-10-21T01:24:11.512Z,11.20
2022-10-21T01:26:40.896Z,9.50
2022-10-21T01:29:35.384Z,9.77
2022-10-21T01:32:46.463Z,10.27
2022-10-21T01:35:41.062Z,10.17
2022-10-21T01:38:29.889Z,9.20
2022-10-21T01:41:03.282Z,9.40
2022-10-21T01:44:03.754Z,8.60
2022-10-21T01:46:48.797Z,8.10
2022-10-21T01:49:26.740Z,8.10
2022-10-21T01:51:54.195Z,8.70
2022-10-21T01:54:26.199Z,7.73
2022-10-21T01:56:53.962Z,8.07
2022-10-21T01:59:24.523Z,8.43
2022-10-21T02:01:51.869Z,8.77
2022-10-21T02:04:19.247Z,8.70
2022-10-21T02:06:45.754Z,8.77
2022-10-21T02:09:12.126Z,8.23
2022-10-21T02:11:38.890Z,8.33
2022-10-21T02:14:08.182Z,7.30
2022-10-21T02:16:39.349Z,7.80
2022-10-21T02:19:13.456Z,7.90
2022-10-21T02:21:40.342Z,8.33
2022-10-21T02:24:16.134Z,8.93
2022-10-21T02:26:42.942Z,8.57
2022-10-21T02:29:09.969Z,7.50
2022-10-21T02:31:57.883Z,7.87
2022-10-21T02:34:42.982Z,8.27
2022-10-21T02:37:28.111Z,8.13
2022-10-21T02:40:02.066Z,8.63
2022-10-21T02:42:32.992Z,7.90
2022-10-21T02:45:02.087Z,8.60
2022-10-21T02:47:29.506Z,8.70
2022-10-21T02:49:56.014Z,8.80
2022-10-21T02:52:22.384Z,9.03
2022-10-21T02:54:48.788Z,9.37
2022-10-21T02:57:15.088Z,8.90
2022-10-21T02:59:41.442Z,8.60
2022-10-21T03:02:07.775Z,9.37
2022-10-21T03:04:34.179Z,8.77
2022-10-21T03:07:00.493Z,8.03
2022-10-21T03:09:26.848Z,10.03
2022-10-21T03:11:53.199Z,8.70
2022-10-21T03:14:19.616Z,10.13
2022-10-21T03:16:45.963Z,10.97
2022-10-21T03:19:12.766Z,8.83
2022-10-21T03:21:39.182Z,8.63
2022-10-21T03:24:10.984Z,11.00
2022-10-21T03:26:46.238Z,10.83
2022-10-21T03:29:12.789Z,9.90
2022-10-21T03:31:39.089Z,9.57
2022-10-21T03:34:05.430Z,8.70
2022-10-21T03:36:31.760Z,8.50
2022-10-21T03:38:58.070Z,8.27
2022-10-21T03:41:24.362Z,10.07
2022-10-21T03:43:50.789Z,17.77
2022-10-21T03:46:17.177Z,25.57
2022-10-21T03:48:43.456Z,17.03
2022-10-21T03:51:09.927Z,18.37
2022-10-21T03:53:43.351Z,21.03
2022-10-21T03:56:10.133Z,14.07
2022-10-21T03:58:36.429Z,16.80
2022-10-21T04:01:03.423Z,18.93
2022-10-21T04:03:29.942Z,23.70
2022-10-21T04:05:56.282Z,16.60
2022-10-21T04:08:22.698Z,14.20
2022-10-21T04:10:49.097Z,12.47
2022-10-21T04:13:15.432Z,9.40
2022-10-21T04:15:41.796Z,9.87
2022-10-21T04:18:08.154Z,9.13
2022-10-21T04:20:34.522Z,10.13
2022-10-21T04:23:00.945Z,9.17
2022-10-21T04:25:27.201Z,8.30
2022-10-21T04:31:46.668Z,9.43
2022-10-21T04:34:13.116Z,8.77
2022-10-21T04:36:39.346Z,7.40
2022-10-21T04:39:05.790Z,9.00
2022-10-21T04:41:32.227Z,9.10
2022-10-21T04:43:58.631Z,8.27
2022-10-21T04:46:24.973Z,8.83
2022-10-21T04:48:51.217Z,7.50
2022-10-21T04:51:17.548Z,8.17
2022-10-21T04:53:43.883Z,8.37
2022-10-21T04:56:10.229Z,8.10
2022-10-21T04:58:36.489Z,8.60
2022-10-21T05:01:03.141Z,7.87
2022-10-21T05:03:30.234Z,7.77
2022-10-21T05:05:56.464Z,8.00
2022-10-21T05:08:23.069Z,6.93
2022-10-21T05:10:49.598Z,7.03
2022-10-21T05:13:15.942Z,8.37
2022-10-21T05:15:42.340Z,7.50
2022-10-21T05:18:08.648Z,6.63
2022-10-21T05:20:34.960Z,7.43
2022-10-21T05:23:01.335Z,8.40
2022-10-21T05:25:31.675Z,7.70
2022-10-21T05:28:00.517Z,8.23
2022-10-21T05:30:26.892Z,7.10
2022-10-21T05:32:53.267Z,6.60
2022-10-21T05:35:19.631Z,7.77
2022-10-21T05:37:45.874Z,6.47
2022-10-21T05:40:12.449Z,6.43
2022-10-21T05:42:38.955Z,6.30
2022-10-21T05:45:06.391Z,5.77
2022-10-21T05:47:32.697Z,6.13
2022-10-21T05:49:58.988Z,6.03
2022-10-21T05:52:25.315Z,6.40
2022-10-21T05:54:51.560Z,5.93
2022-10-21T05:57:17.896Z,5.30
2022-10-21T05:59:44.182Z,6.47
2022-10-21T06:02:10.846Z,6.30
2022-10-21T06:04:38.698Z,6.63
2022-10-21T06:07:05.260Z,6.17
2022-10-21T06:09:31.498Z,6.47
2022-10-21T06:11:58.228Z,5.40
2022-10-21T06:14:25.805Z,6.00
2022-10-21T06:16:52.237Z,6.73
2022-10-21T06:19:18.516Z,6.07
2022-10-21T06:21:44.739Z,5.07
2022-10-21T06:24:11.164Z,5.50
2022-10-21T06:26:37.477Z,4.53
2022-10-21T06:29:04.016Z,5.27
2022-10-21T06:31:30.348Z,5.70
2022-10-21T06:33:56.640Z,4.80
2022-10-21T06:36:22.934Z,5.30
2022-10-21T06:38:49.390Z,5.30
2022-10-21T06:41:15.734Z,4.63
2022-10-21T06:43:42.839Z,8.93
2022-10-21T06:46:13.874Z,90.57
2022-10-21T06:48:40.164Z,54.07
2022-10-21T06:51:14.854Z,17.90
2022-10-21T06:53:41.124Z,7.03
2022-10-21T06:56:13.110Z,6.43
2022-10-21T06:58:43.236Z,6.03
2022-10-21T07:01:21.274Z,6.00
2022-10-21T07:03:56.462Z,5.03
2022-10-21T07:06:22.801Z,5.60
2022-10-21T07:08:57.952Z,6.30
2022-10-21T07:11:25.884Z,5.70
2022-10-21T07:13:52.265Z,7.03
2022-10-21T07:16:28.751Z,7.07
2022-10-21T07:18:55.654Z,7.13
2022-10-21T07:21:23.914Z,11.07
2022-10-21T07:23:51.693Z,12.03
2022-10-21T07:26:19.783Z,7.63
2022-10-21T07:28:47.716Z,7.33
2022-10-21T07:31:18.526Z,6.53
2022-10-21T07:33:45.533Z,8.07
2022-10-21T07:36:21.229Z,11.67
2022-10-21T07:38:48.550Z,21.53
2022-10-21T07:41:27.241Z,18.67
2022-10-21T07:43:54.441Z,15.83
2022-10-21T07:46:22.249Z,16.67
2022-10-21T07:48:49.672Z,13.43
2022-10-21T07:51:19.308Z,9.77
2022-10-21T07:53:49.121Z,14.50
2022-10-21T07:56:17.004Z,19.63
2022-10-21T07:58:44.045Z,19.20
2022-10-21T08:01:11.182Z,13.17
2022-10-21T08:03:38.670Z,11.20
2022-10-21T08:06:06.090Z,9.70
2022-10-21T08:08:33.312Z,12.23
2022-10-21T08:10:59.635Z,10.33
2022-10-21T08:13:26.174Z,10.30
2022-10-21T08:15:53.952Z,10.33
2022-10-21T08:18:20.696Z,20.33
2022-10-21T08:20:48.182Z,26.97
2022-10-21T08:23:17.173Z,15.57
2022-10-21T08:25:47.935Z,10.47
2022-10-21T08:28:14.703Z,7.23
2022-10-21T08:30:41.303Z,6.10
2022-10-21T08:33:07.639Z,6.20
2022-10-21T08:35:33.923Z,7.27
2022-10-21T08:38:00.738Z,6.50
2022-10-21T08:40:37.091Z,7.13
2022-10-21T08:43:28.524Z,7.23
2022-10-21T08:45:57.523Z,8.07
2022-10-21T08:48:29.365Z,8.20
2022-10-21T08:50:57.678Z,9.40
2022-10-21T08:53:27.337Z,11.33
2022-10-21T08:56:00.111Z,19.03
2022-10-21T08:58:26.472Z,10.87
2022-10-21T09:01:18.358Z,8.93
2022-10-21T09:03:55.002Z,10.50
2022-10-21T09:06:31.333Z,11.07
2022-10-21T09:09:15.889Z,10.43
2022-10-21T09:12:12.565Z,9.57
2022-10-21T09:14:59.832Z,6.97
2022-10-21T09:17:53.582Z,6.57
2022-10-21T09:20:32.793Z,6.07
2022-10-21T09:23:26.279Z,6.83
2022-10-21T09:25:59.782Z,6.27
2022-10-21T09:28:27.279Z,7.03
2022-10-21T09:30:54.884Z,5.83
2022-10-21T09:33:24.974Z,5.50
2022-10-21T09:36:02.751Z,5.30
2022-10-21T09:38:44.721Z,5.23
2022-10-21T09:41:16.432Z,5.30
2022-10-21T09:43:43.562Z,5.17
2022-10-21T09:46:14.423Z,5.00
2022-10-21T09:49:16.295Z,5.10
2022-10-21T09:51:35.273Z,6.40
2022-10-21T09:54:11.569Z,5.77
2022-10-21T09:56:49.856Z,5.90
2022-10-21T09:59:19.312Z,5.80
2022-10-21T10:01:46.395Z,6.50
2022-10-21T10:04:23.895Z,6.43
2022-10-21T10:06:50.556Z,5.97
2022-10-21T10:09:16.781Z,5.63
2022-10-21T10:12:00.421Z,5.10
2022-10-21T10:14:36.284Z,5.97
2022-10-21T10:17:31.865Z,5.83
2022-10-21T10:20:04.331Z,6.37
2022-10-21T10:22:38.250Z,5.40
2022-10-21T10:25:25.252Z,5.80
2022-10-21T10:28:08.579Z,5.90
2022-10-21T10:30:40.980Z,6.17
2022-10-21T10:33:15.057Z,5.77
2022-10-21T10:35:48.745Z,7.37
2022-10-21T10:38:37.751Z,7.00
2022-10-21T10:41:14.089Z,5.53
2022-10-21T10:43:50.640Z,6.23
2022-10-21T10:46:30.724Z,5.77
2022-10-21T10:49:04.819Z,4.53
2022-10-21T10:51:33.032Z,5.23
2022-10-21T10:54:17.741Z,4.53
2022-10-21T10:56:53.220Z,4.47
2022-10-21T10:59:27.580Z,4.50
2022-10-21T11:02:04.278Z,4.00
2022-10-21T11:04:39.807Z,5.33
2022-10-21T11:07:12.195Z,4.50
2022-10-21T11:09:38.621Z,4.00
2022-10-21T11:12:15.272Z,4.07
2022-10-21T11:14:51.382Z,3.50
2022-10-21T11:17:20.997Z,5.10
2022-10-21T11:20:11.221Z,4.83
2022-10-21T11:22:56.431Z,4.90
2022-10-21T11:25:28.960Z,4.47
2022-10-21T11:28:14.498Z,3.93
2022-10-21T11:30:40.710Z,4.03
2022-10-21T11:33:22.320Z,4.37
2022-10-21T11:36:29.829Z,4.07
2022-10-21T11:39:24.447Z,4.47
2022-10-21T11:42:08.321Z,4.40
2022-10-21T11:45:02.613Z,4.50
2022-10-21T11:47:36.647Z,4.37
2022-10-21T11:50:26.653Z,4.13
2022-10-21T11:53:27.674Z,4.53
2022-10-21T11:56:06.036Z,4.37
2022-10-21T11:58:51.172Z,4.43
2022-10-21T12:01:46.724Z,4.67
2022-10-21T12:04:39.157Z,6.23
2022-10-21T12:07:31.595Z,5.90
2022-10-21T12:10:25.378Z,6.30
2022-10-21T12:12:57.240Z,5.70
2022-10-21T12:15:41.207Z,4.63
2022-10-21T12:18:17.264Z,4.83
2022-10-21T12:20:48.945Z,4.57
2022-10-21T12:23:22.200Z,4.33
2022-10-21T12:26:00.477Z,3.90
2022-10-21T12:28:54.061Z,3.70
2022-10-21T12:31:30.673Z,3.13
2022-10-21T12:33:57.700Z,3.87
2022-10-21T12:36:24.030Z,3.87
2022-10-21T12:38:51.377Z,3.20
2022-10-21T12:41:34.238Z,3.27
2022-10-21T12:44:00.505Z,3.47
2022-10-21T12:46:44.469Z,4.20
2022-10-21T12:49:19.844Z,3.23
2022-10-21T12:52:20.313Z,3.07
2022-10-21T12:54:57.977Z,3.17
2022-10-21T12:57:29.532Z,2.70
2022-10-21T13:00:35.890Z,2.47
2022-10-21T13:03:09.935Z,3.20
2022-10-21T13:05:36.184Z,2.10
2022-10-21T13:08:20.976Z,2.07
2022-10-21T13:11:12.540Z,1.83
2022-10-21T13:13:46.765Z,2.10
2022-10-21T13:16:15.895Z,2.27
2022-10-21T13:19:00.745Z,1.73
2022-10-21T13:21:29.885Z,1.77
2022-10-21T13:23:57.987Z,2.20
2022-10-21T13:26:27.675Z,1.80
2022-10-21T13:29:00.665Z,2.00
2022-10-21T13:31:27.730Z,2.10
2022-10-21T13:33:55.045Z,2.10
2022-10-21T13:36:42.615Z,2.10
2022-10-21T13:39:27.545Z,2.80
2022-10-21T13:42:02.158Z,2.00
2022-10-21T13:44:40.301Z,1.90
2022-10-21T13:47:20.028Z,2.37
2022-10-21T13:49:50.568Z,2.10
2022-10-21T13:52:17.359Z,1.73
2022-10-21T13:54:43.648Z,2.50
2022-10-21T13:57:11.253Z,2.23
2022-10-21T13:59:37.620Z,2.30
2022-10-21T14:02:05.090Z,2.20
2022-10-21T14:04:33.101Z,1.80
2022-10-21T14:07:11.092Z,1.77
2022-10-21T14:09:51.868Z,1.63
2022-10-21T14:12:26.352Z,2.03
2022-10-21T14:14:55.710Z,1.90
2022-10-21T14:17:25.312Z,1.73
2022-10-21T14:19:53.258Z,1.90
2022-10-21T14:22:24.199Z,2.00
2022-10-21T14:24:56.548Z,2.20
2022-10-21T14:27:34.209Z,2.60
2022-10-21T14:30:09.948Z,2.93
2022-10-21T14:32:36.979Z,2.90
2022-10-21T14:35:09.827Z,2.20
2022-10-21T14:37:47.754Z,2.20
2022-10-21T14:40:29.405Z,2.73
2022-10-21T14:42:55.833Z,2.40
2022-10-21T14:45:37.986Z,2.50
2022-10-21T14:48:11.006Z,2.40
2022-10-21T14:50:39.707Z,1.93
2022-10-21T14:53:15.377Z,2.97
2022-10-21T14:55:42.754Z,2.60
2022-10-21T14:58:13.100Z,2.33
2022-10-21T15:00:41.427Z,2.63
2022-10-21T15:03:10.287Z,2.40
2022-10-21T15:05:44.029Z,3.20
2022-10-21T15:08:22.478Z,2.60
2022-10-21T15:10:54.548Z,2.50
2022-10-21T15:13:20.812Z,2.30
2022-10-21T15:15:54.556Z,1.90
2022-10-21T15:18:39.070Z,2.30
2022-10-21T15:21:08.629Z,2.27
2022-10-21T15:23:39.305Z,2.07
2022-10-21T15:26:36.899Z,2.40
2022-10-21T15:29:25.540Z,2.57
2022-10-21T15:31:53.291Z,2.10
2022-10-21T15:34:20.185Z,2.13
2022-10-21T15:36:46.556Z,1.93
2022-10-21T15:39:12.826Z,2.13
2022-10-21T15:41:39.447Z,2.27
2022-10-21T15:44:15.694Z,1.90
2022-10-21T15:46:46.314Z,2.50
2022-10-21T15:49:18.102Z,2.07
2022-10-21T15:51:44.553Z,1.93
2022-10-21T15:54:10.861Z,2.10
2022-10-21T15:56:37.736Z,2.00
2022-10-21T15:59:04.032Z,1.97
2022-10-21T16:01:30.375Z,2.23
2022-10-21T16:03:56.798Z,2.43
2022-10-21T16:06:23.108Z,2.17
2022-10-21T16:08:49.695Z,2.37
2022-10-21T16:11:25.664Z,1.90
2022-10-21T16:14:01.270Z,2.20
2022-10-21T16:16:27.711Z,4.70
2022-10-21T16:18:54.081Z,3.57
2022-10-21T16:21:22.123Z,3.50
2022-10-21T16:23:49.175Z,2.97
2022-10-21T16:26:23.658Z,3.73
2022-10-21T16:28:51.857Z,3.90
2022-10-21T16:31:18.467Z,3.43
2022-10-21T16:33:45.497Z,3.30
2022-10-21T16:36:22.226Z,3.27
2022-10-21T16:38:50.411Z,2.43
2022-10-21T16:41:25.060Z,3.30
2022-10-21T16:43:51.364Z,3.40
2022-10-21T16:46:25.101Z,2.73
2022-10-21T16:48:51.889Z,3.03
2022-10-21T16:51:18.569Z,4.33
2022-10-21T16:53:44.874Z,3.17
2022-10-21T16:56:11.130Z,3.70
2022-10-21T16:58:37.461Z,3.67
2022-10-21T17:01:05.928Z,4.83
2022-10-21T17:03:33.615Z,4.13
2022-10-21T17:05:59.996Z,4.43
2022-10-21T17:08:26.341Z,3.83
2022-10-21T17:10:52.677Z,3.73
2022-10-21T17:13:18.924Z,4.10
2022-10-21T17:15:45.759Z,4.23
2022-10-21T17:18:15.475Z,5.03
2022-10-21T17:20:42.561Z,4.77
2022-10-21T17:23:10.594Z,3.93
2022-10-21T17:25:37.293Z,3.97
2022-10-21T17:28:03.808Z,4.10
2022-10-21T17:30:30.060Z,3.73
2022-10-21T17:32:56.373Z,3.93
2022-10-21T17:35:22.816Z,4.20
2022-10-21T17:37:49.268Z,3.20
2022-10-21T17:40:19.050Z,3.37
2022-10-21T17:42:45.533Z,3.23
2022-10-21T17:45:14.020Z,2.90
2022-10-21T17:47:40.813Z,2.70
2022-10-21T17:50:08.897Z,3.10
2022-10-21T17:52:36.322Z,3.27
2022-10-21T17:55:03.435Z,3.30
2022-10-21T17:57:32.909Z,2.77
2022-10-21T17:59:59.739Z,3.33
2022-10-21T18:02:28.536Z,3.67
2022-10-21T18:04:58.290Z,3.13
2022-10-21T18:07:24.637Z,3.37
2022-10-21T18:09:50.889Z,2.90
2022-10-21T18:12:17.297Z,2.83
2022-10-21T18:14:43.594Z,3.30
2022-10-21T18:17:10.157Z,3.10
2022-10-21T18:19:36.641Z,3.20
2022-10-21T18:22:03.878Z,3.30
2022-10-21T18:24:30.388Z,2.77
2022-10-21T18:26:56.817Z,3.33
2022-10-21T18:29:23.099Z,3.30
2022-10-21T18:31:49.479Z,3.33
2022-10-21T18:34:15.886Z,3.40
2022-10-21T18:36:43.123Z,3.97
2022-10-21T18:39:11.115Z,3.90
2022-10-21T18:41:38.472Z,4.50
2022-10-21T18:44:08.213Z,5.40
2022-10-21T18:46:38.546Z,5.63
2022-10-21T18:49:08.376Z,5.43
2022-10-21T18:51:34.706Z,5.20
2022-10-21T18:54:01.061Z,5.00
2022-10-21T18:56:27.525Z,5.10
2022-10-21T18:58:56.239Z,5.10
2022-10-21T19:01:25.152Z,5.27
2022-10-21T19:03:53.959Z,4.90
2022-10-21T19:06:33.809Z,4.63
2022-10-21T19:09:01.151Z,5.37
2022-10-21T19:11:28.011Z,4.40
2022-10-21T19:13:54.300Z,4.70
2022-10-21T19:16:21.117Z,4.63
2022-10-21T19:18:47.637Z,4.50
2022-10-21T19:21:16.430Z,4.60
2022-10-21T19:23:42.740Z,4.37
2022-10-21T19:26:10.464Z,4.03
2022-10-21T19:28:37.430Z,3.83
2022-10-21T19:31:03.849Z,4.67
2022-10-21T19:33:30.923Z,5.03
2022-10-21T19:36:05.177Z,3.70
2022-10-21T19:38:43.671Z,4.07
2022-10-21T19:41:14.736Z,4.40
2022-10-21T19:43:40.979Z,4.30
2022-10-21T19:46:10.671Z,4.40
2022-10-21T19:48:37.060Z,4.07
2022-10-21T19:51:04.138Z,4.27
2022-10-21T19:53:31.830Z,3.87
2022-10-21T19:56:01.070Z,4.37
2022-10-21T19:58:27.360Z,3.87
2022-10-21T20:01:04.404Z,3.73
2022-10-21T20:03:31.007Z,4.30
2022-10-21T20:05:57.244Z,3.93
2022-10-21T20:08:23.696Z,4.27
2022-10-21T20:11:04.908Z,3.50
2022-10-21T20:13:31.615Z,3.67
2022-10-21T20:15:58.202Z,4.20
2022-10-21T20:18:27.335Z,4.20
2022-10-21T20:20:55.253Z,4.43
2022-10-21T20:23:23.322Z,4.20
2022-10-21T20:25:50.824Z,3.17
2022-10-21T20:28:17.169Z,3.53
2022-10-21T20:30:43.822Z,4.00
2022-10-21T20:33:10.163Z,4.07
2022-10-21T20:35:40.834Z,4.50
2022-10-21T20:38:07.355Z,4.00
2022-10-21T20:40:33.687Z,3.90
2022-10-21T20:43:00.018Z,3.43
2022-10-21T20:45:26.382Z,3.60
2022-10-21T20:47:52.729Z,3.73
2022-10-21T20:50:19.016Z,3.97
2022-10-21T20:52:45.380Z,3.90
2022-10-21T20:55:11.723Z,4.23
2022-10-21T20:57:38.492Z,4.30
2022-10-21T21:00:05.116Z,4.10
2022-10-21T21:02:31.449Z,3.87
2022-10-21T21:04:57.761Z,4.13
2022-10-21T21:07:24.017Z,4.60
2022-10-21T21:10:02.154Z,3.60
2022-10-21T21:12:29.612Z,3.83
2022-10-21T21:14:55.901Z,4.07
2022-10-21T21:17:22.164Z,3.13
2022-10-21T21:19:48.510Z,3.57
2022-10-21T21:22:14.861Z,5.00
2022-10-21T21:24:41.495Z,4.03
2022-10-21T21:27:07.808Z,4.13
2022-10-21T21:29:34.089Z,4.23
2022-10-21T21:32:00.401Z,3.93
2022-10-21T21:34:26.702Z,3.97
2022-10-21T21:36:53.004Z,3.70
2022-10-21T21:39:19.244Z,4.50
2022-10-21T21:41:45.685Z,4.20
2022-10-21T21:44:11.993Z,3.47
2022-10-21T21:46:38.394Z,4.70
2022-10-21T21:49:06.208Z,3.57
2022-10-21T21:51:35.426Z,3.30
2022-10-21T21:54:01.797Z,3.53
2022-10-21T21:56:28.194Z,3.70
2022-10-21T21:58:55.942Z,4.00
2022-10-21T22:01:23.605Z,4.13
2022-10-21T22:03:51.597Z,4.20
2022-10-21T22:06:23.197Z,3.30
2022-10-21T22:08:50.726Z,3.47
2022-10-21T22:11:18.368Z,2.77
2022-10-21T22:13:44.731Z,3.83
2022-10-21T22:16:12.871Z,3.07
2022-10-21T22:18:39.617Z,3.67
2022-10-21T22:21:11.615Z,3.73
2022-10-21T22:23:38.706Z,3.57
2022-10-21T22:26:06.161Z,3.73
2022-10-21T22:28:32.754Z,3.53
2022-10-21T22:31:00.246Z,4.60
2022-10-21T22:33:26.880Z,3.97
2022-10-21T22:35:53.415Z,4.03
2022-10-21T22:38:19.822Z,4.60
2022-10-21T22:40:46.185Z,3.90
2022-10-21T22:43:12.480Z,4.17
2022-10-21T22:45:38.794Z,3.93
2022-10-21T22:48:05.280Z,4.60
2022-10-21T22:50:31.594Z,4.53
2022-10-21T22:52:57.854Z,4.00
2022-10-21T22:55:24.154Z,3.47
2022-10-21T22:57:50.441Z,3.80
2022-10-21T23:00:16.778Z,4.17
2022-10-21T23:02:43.347Z,4.23
2022-10-21T23:05:09.788Z,3.90
2022-10-21T23:07:36.044Z,4.33
2022-10-21T23:10:02.411Z,4.47
2022-10-21T23:12:28.796Z,4.90
2022-10-21T23:14:55.056Z,4.27
2022-10-21T23:17:21.369Z,4.47
2022-10-21T23:19:47.664Z,3.97
2022-10-21T23:22:13.984Z,3.63
2022-10-21T23:24:40.290Z,4.90
2022-10-21T23:27:06.588Z,3.93
2022-10-21T23:29:32.962Z,4.60
2022-10-21T23:31:59.300Z,3.70
2022-10-21T23:34:25.583Z,4.53
2022-10-21T23:36:52.271Z,3.80
2022-10-21T23:39:18.576Z,4.80
2022-10-21T23:41:45.488Z,3.67
2022-10-21T23:44:11.776Z,4.43
2022-10-21T23:46:38.232Z,4.23
2022-10-21T23:49:04.595Z,4.53
2022-10-21T23:51:30.934Z,4.63
2022-10-21T23:53:57.426Z,4.30
2022-10-21T23:56:23.916Z,4.77
2022-10-21T23:58:50.280Z,5.30
